Time;durP1;ratioP1;P1;durP2;ratioP2;P2;SDS_P1;SDS_P2;PMS_P1;PMS_P2;Temp;Humidity;BMP_temperature;BMP_pressure;BME280_temperature;BME280_humidity;BME280_pressure;Samples;Min_cycle;Max_cycle;Signal;HPM_P1;HPM_P2
2022/11/16 00:00:17;;;;;;;17.92;14.23;;;11.70;99.90;;;;;;5031517;28;20383;-76
2022/11/16 00:02:43;;;;;;;21.83;15.55;;;11.80;99.90;;;;;;5028550;28;20468;-76
2022/11/16 00:05:08;;;;;;;23.95;16.35;;;11.80;99.90;;;;;;5031981;28;20087;-76
2022/11/16 00:07:34;;;;;;;20.52;14.50;;;11.80;99.90;;;;;;5029502;28;20032;-76
2022/11/16 00:10:00;;;;;;;20.40;15.07;;;11.80;99.90;;;;;;5027785;28;20033;-75
2022/11/16 00:12:26;;;;;;;19.10;14.90;;;11.80;99.90;;;;;;5027851;28;20026;-76
2022/11/16 00:14:51;;;;;;;21.60;15.60;;;11.80;99.90;;;;;;5027299;28;20022;-76
2022/11/16 00:17:17;;;;;;;23.00;16.48;;;11.80;99.90;;;;;;5028688;28;20095;-75
2022/11/16 00:19:43;;;;;;;23.48;16.10;;;11.80;99.90;;;;;;5026743;28;20029;-74
2022/11/16 00:22:08;;;;;;;24.33;16.63;;;11.80;99.90;;;;;;5026685;28;20507;-75
2022/11/16 00:24:34;;;;;;;24.35;16.92;;;11.80;99.90;;;;;;5027631;28;20029;-76
2022/11/16 00:26:59;;;;;;;23.60;16.75;;;11.80;99.90;;;;;;5025361;28;20371;-75
2022/11/16 00:29:26;;;;;;;22.83;17.33;;;11.80;99.90;;;;;;5029419;28;20533;-75
2022/11/16 00:31:52;;;;;;;22.92;16.20;;;11.80;99.90;;;;;;5026961;28;20142;-75
2022/11/16 00:34:18;;;;;;;25.02;17.63;;;11.80;99.90;;;;;;5025328;28;20443;-77
2022/11/16 00:36:45;;;;;;;22.15;16.05;;;11.80;99.90;;;;;;5025832;28;20032;-76
2022/11/16 00:39:12;;;;;;;22.33;17.35;;;11.80;99.90;;;;;;5029203;28;20079;-76
2022/11/16 00:41:38;;;;;;;27.70;18.15;;;11.80;99.90;;;;;;5026619;28;20492;-75
2022/11/16 00:44:04;;;;;;;26.25;18.45;;;11.90;99.90;;;;;;5027863;28;20537;-76
2022/11/16 00:46:29;;;;;;;24.33;18.67;;;11.90;99.90;;;;;;5025354;28;20159;-75
2022/11/16 00:48:55;;;;;;;26.85;18.23;;;11.90;99.90;;;;;;5032962;28;20059;-75
2022/11/16 00:51:20;;;;;;;26.50;19.67;;;11.90;99.90;;;;;;5028709;28;20029;-75
2022/11/16 00:53:46;;;;;;;30.40;20.50;;;11.90;99.90;;;;;;5024708;28;20045;-76
2022/11/16 00:56:11;;;;;;;23.42;17.90;;;11.80;99.90;;;;;;5026131;28;20143;-75
2022/11/16 00:58:37;;;;;;;27.42;19.88;;;11.90;99.90;;;;;;5025478;28;20056;-75
2022/11/16 01:01:07;;;;;;;27.45;18.85;;;11.90;99.90;;;;;;5027970;28;20055;-76
2022/11/16 01:03:34;;;;;;;27.25;19.40;;;11.90;99.90;;;;;;5025390;28;20056;-75
2022/11/16 01:06:02;;;;;;;26.77;19.60;;;11.90;99.90;;;;;;5024980;28;20036;-76
2022/11/16 01:08:27;;;;;;;23.73;18.58;;;11.90;99.90;;;;;;5027316;28;20059;-75
2022/11/16 01:10:53;;;;;;;28.15;19.55;;;11.90;99.90;;;;;;5026328;28;20513;-75
2022/11/16 01:13:19;;;;;;;27.08;19.35;;;11.90;99.90;;;;;;5028171;28;20119;-76
2022/11/16 01:15:48;;;;;;;25.30;19.55;;;11.90;99.90;;;;;;5025222;28;20430;-75
2022/11/16 01:18:13;;;;;;;28.77;19.38;;;11.90;99.90;;;;;;5033655;28;20442;-76
2022/11/16 01:20:39;;;;;;;25.58;18.73;;;11.90;99.90;;;;;;5024669;28;20094;-75
2022/11/16 01:23:05;;;;;;;24.13;18.77;;;11.80;99.90;;;;;;5025650;28;21457;-74
2022/11/16 01:25:31;;;;;;;27.17;19.33;;;11.80;99.90;;;;;;5025356;28;20114;-76
2022/11/16 01:27:57;;;;;;;28.45;19.70;;;11.80;99.90;;;;;;5025632;28;21854;-76
2022/11/16 01:30:23;;;;;;;30.80;19.90;;;11.80;99.90;;;;;;5029325;28;20076;-75
2022/11/16 01:32:48;;;;;;;30.10;21.83;;;11.80;99.90;;;;;;5030400;28;20577;-75
2022/11/16 01:35:17;;;;;;;29.35;20.42;;;11.80;99.90;;;;;;5028633;28;20044;-76
2022/11/16 01:37:43;;;;;;;30.10;20.92;;;11.80;99.90;;;;;;5030137;28;20099;-75
2022/11/16 01:40:10;;;;;;;27.73;18.88;;;11.80;99.90;;;;;;5029767;28;20045;-76
2022/11/16 01:42:35;;;;;;;24.83;18.25;;;11.80;99.90;;;;;;5028905;28;20444;-75
2022/11/16 01:45:30;;;;;;;24.63;17.77;;;11.80;99.90;;;;;;5028947;28;20037;-76
2022/11/16 01:47:56;;;;;;;22.25;16.33;;;11.80;99.90;;;;;;5028691;28;20029;-76
2022/11/16 01:50:21;;;;;;;22.83;17.30;;;11.80;99.90;;;;;;5040041;28;20033;-76
2022/11/16 01:53:01;;;;;;;18.77;14.50;;;11.80;99.90;;;;;;5029293;28;20032;-76
2022/11/16 01:55:30;;;;;;;20.20;14.70;;;11.80;99.90;;;;;;5029119;28;20033;-75
2022/11/16 01:57:56;;;;;;;21.70;16.08;;;11.80;99.90;;;;;;5030349;28;20686;-76
2022/11/16 02:00:22;;;;;;;20.10;14.88;;;11.80;99.90;;;;;;5030038;28;20071;-76
2022/11/16 02:02:48;;;;;;;18.73;14.40;;;11.80;99.90;;;;;;5027380;28;20461;-76
2022/11/16 02:05:18;;;;;;;17.38;13.60;;;11.80;99.90;;;;;;5028746;28;20289;-76
2022/11/16 02:11:13;;;;;;;21.00;15.73;;;11.80;99.90;;;;;;5029159;28;20539;-76
2022/11/16 02:14:24;;;;;;;19.73;15.02;;;11.80;99.90;;;;;;5032790;28;20035;-76
2022/11/16 02:17:35;;;;;;;21.73;14.52;;;11.80;99.90;;;;;;5029783;28;20033;-76
2022/11/16 02:20:07;;;;;;;19.20;13.73;;;11.80;99.90;;;;;;5028704;28;20132;-76
2022/11/16 02:22:53;;;;;;;20.38;15.75;;;11.80;99.90;;;;;;5026819;28;20047;-76
2022/11/16 02:25:58;;;;;;;19.83;14.63;;;11.80;99.90;;;;;;5027702;28;20025;-76
2022/11/16 02:28:42;;;;;;;20.05;14.85;;;11.80;99.90;;;;;;5029733;28;20049;-76
2022/11/16 02:31:12;;;;;;;28.42;17.23;;;11.80;99.90;;;;;;5027699;28;20134;-76
2022/11/16 02:33:40;;;;;;;24.55;17.02;;;11.80;99.90;;;;;;5031721;28;20522;-76
2022/11/16 02:36:10;;;;;;;21.58;16.27;;;11.80;99.90;;;;;;5027166;28;20033;-76
2022/11/16 02:38:41;;;;;;;23.83;16.20;;;11.80;99.90;;;;;;5028933;28;20615;-76
2022/11/16 02:41:16;;;;;;;21.45;15.32;;;11.80;99.90;;;;;;5032175;28;20106;-76
2022/11/16 02:43:44;;;;;;;20.77;14.95;;;11.80;99.90;;;;;;5030432;28;20044;-76
2022/11/16 02:46:30;;;;;;;22.30;16.40;;;11.80;99.90;;;;;;5027959;28;20025;-75
2022/11/16 02:49:01;;;;;;;22.20;15.82;;;11.90;99.90;;;;;;5037466;28;20025;-75
2022/11/16 02:51:28;;;;;;;26.63;15.52;;;11.90;99.90;;;;;;5028819;28;20471;-75
2022/11/16 02:54:07;;;;;;;24.17;15.65;;;11.80;99.90;;;;;;5028333;28;20056;-74
2022/11/16 02:57:05;;;;;;;20.30;15.15;;;11.80;99.90;;;;;;5030440;28;20033;-74
2022/11/16 02:59:39;;;;;;;19.85;14.75;;;11.90;99.90;;;;;;5019739;28;20045;-74
2022/11/16 03:02:21;;;;;;;23.77;16.08;;;11.90;99.90;;;;;;5030519;28;20040;-74
2022/11/16 03:04:52;;;;;;;19.52;15.35;;;11.90;99.90;;;;;;5027890;28;20040;-75
2022/11/16 03:07:22;;;;;;;23.50;16.65;;;11.90;99.90;;;;;;5028948;28;20124;-74
2022/11/16 03:09:50;;;;;;;19.15;14.77;;;11.90;99.90;;;;;;5026938;28;20025;-74
2022/11/16 03:12:21;;;;;;;22.65;16.50;;;11.90;99.90;;;;;;5027634;28;20531;-74
2022/11/16 03:14:54;;;;;;;18.40;14.77;;;11.90;99.90;;;;;;5027584;28;20025;-75
2022/11/16 03:17:42;;;;;;;23.20;17.08;;;11.90;99.90;;;;;;5034102;28;20029;-75
2022/11/16 03:20:12;;;;;;;21.63;15.70;;;11.90;99.90;;;;;;5027826;28;21610;-75
2022/11/16 03:22:38;;;;;;;24.15;16.55;;;11.90;99.90;;;;;;5041387;28;20029;-75
2022/11/16 03:25:04;;;;;;;21.52;15.98;;;11.90;99.90;;;;;;5028597;28;20044;-75
2022/11/16 03:27:40;;;;;;;23.95;16.25;;;11.90;99.90;;;;;;5027266;28;21528;-75
2022/11/16 03:30:19;;;;;;;18.33;13.80;;;11.90;99.90;;;;;;5028249;28;21603;-76
2022/11/16 03:32:52;;;;;;;20.55;16.10;;;12.00;99.90;;;;;;5029003;28;20033;-75
2022/11/16 03:35:26;;;;;;;18.90;15.88;;;12.00;99.90;;;;;;5025753;28;20029;-75
2022/11/16 03:37:54;;;;;;;20.38;15.73;;;12.00;99.90;;;;;;5026067;28;20048;-75
2022/11/16 03:40:24;;;;;;;18.75;15.60;;;12.00;99.90;;;;;;5027063;28;20036;-75
2022/11/16 03:42:49;;;;;;;19.02;15.75;;;12.10;99.90;;;;;;5030967;28;20486;-75
2022/11/16 03:45:17;;;;;;;16.17;13.65;;;12.00;99.90;;;;;;5026521;28;20029;-75
2022/11/16 03:47:44;;;;;;;19.90;14.30;;;12.00;99.90;;;;;;5032855;28;20641;-75
2022/11/16 03:50:10;;;;;;;18.38;14.48;;;12.00;99.90;;;;;;5031310;28;20037;-75
2022/11/16 03:52:35;;;;;;;19.42;14.85;;;12.00;99.90;;;;;;5028868;28;20040;-76
2022/11/16 03:55:01;;;;;;;20.83;14.52;;;12.00;99.90;;;;;;5029525;28;20488;-74
2022/11/16 03:57:27;;;;;;;19.35;14.38;;;12.10;99.90;;;;;;5029624;28;20040;-73
2022/11/16 03:59:52;;;;;;;19.33;14.65;;;12.00;99.90;;;;;;5030954;28;20033;-75
2022/11/16 04:02:18;;;;;;;17.55;14.05;;;12.00;99.90;;;;;;5029247;28;20036;-75
2022/11/16 04:24:13;;;;;;;20.63;15.35;;;12.00;99.90;;;;;;5025962;28;20037;-75
2022/11/16 04:29:32;;;;;;;21.20;15.48;;;11.90;99.90;;;;;;5028603;28;20023;-75
2022/11/16 04:40:11;;;;;;;18.15;13.18;;;12.00;99.90;;;;;;5026974;28;20110;-75
2022/11/16 04:42:37;;;;;;;17.60;12.95;;;11.90;99.90;;;;;;5025989;28;20448;-75
2022/11/16 04:47:50;;;;;;;15.25;11.88;;;11.90;99.90;;;;;;5036798;28;20036;-75
2022/11/16 04:50:17;;;;;;;15.50;10.52;;;11.80;99.90;;;;;;5026662;28;20048;-75
2022/11/16 04:52:43;;;;;;;13.20;11.18;;;11.90;99.90;;;;;;5029409;28;20087;-76
2022/11/16 04:55:09;;;;;;;12.52;10.50;;;11.80;99.90;;;;;;5025996;28;20661;-75
2022/11/16 04:57:34;;;;;;;17.92;9.52;;;11.80;99.90;;;;;;5027454;28;20040;-75
2022/11/16 05:00:00;;;;;;;12.23;8.98;;;11.70;99.90;;;;;;5025271;28;20033;-75
2022/11/16 05:02:26;;;;;;;11.18;9.02;;;11.70;99.90;;;;;;5027681;28;20060;-75
2022/11/16 05:04:51;;;;;;;10.63;7.97;;;11.70;99.90;;;;;;5027951;28;20025;-75
2022/11/16 05:07:17;;;;;;;10.88;8.13;;;11.70;99.90;;;;;;5030022;28;20119;-75
2022/11/16 05:09:45;;;;;;;9.85;7.22;;;11.60;99.90;;;;;;5024647;28;20029;-75
2022/11/16 05:12:18;;;;;;;12.05;7.78;;;11.60;99.90;;;;;;5030270;28;20040;-75
2022/11/16 05:14:44;;;;;;;11.63;6.50;;;11.60;99.90;;;;;;5033120;28;20985;-76
2022/11/16 05:17:10;;;;;;;9.30;6.25;;;11.60;99.90;;;;;;5031140;28;20036;-76
2022/11/16 05:22:20;;;;;;;7.32;4.72;;;11.50;99.90;;;;;;5030556;28;20055;-75
2022/11/16 05:24:46;;;;;;;10.95;5.03;;;11.50;99.90;;;;;;5026972;28;20428;-75
2022/11/16 05:27:17;;;;;;;9.68;4.70;;;11.50;99.90;;;;;;5044161;28;20029;-75
2022/11/16 05:29:43;;;;;;;5.22;3.88;;;11.40;99.90;;;;;;5032369;28;20017;-74
2022/11/16 05:32:11;;;;;;;8.02;4.07;;;11.40;99.90;;;;;;5039391;28;20033;-76
2022/11/16 05:34:39;;;;;;;7.13;3.63;;;11.40;99.90;;;;;;5048181;28;20494;-76
2022/11/16 05:37:05;;;;;;;7.97;3.03;;;11.30;99.90;;;;;;5032639;28;20017;-76
2022/11/16 05:39:31;;;;;;;7.22;2.88;;;11.30;99.90;;;;;;5030180;28;20483;-75
2022/11/16 05:41:57;;;;;;;9.05;3.25;;;11.20;99.90;;;;;;5028965;28;20132;-75
2022/11/16 05:44:25;;;;;;;10.55;2.45;;;11.20;99.90;;;;;;5033966;28;20471;-76
2022/11/16 05:46:51;;;;;;;3.88;2.20;;;11.20;99.90;;;;;;5034357;28;20743;-77
2022/11/16 05:49:19;;;;;;;7.45;2.60;;;11.20;99.90;;;;;;5032511;28;20029;-74
2022/11/16 05:51:45;;;;;;;5.40;1.65;;;11.10;99.90;;;;;;5030397;28;20433;-77
2022/11/16 05:54:13;;;;;;;6.45;1.80;;;11.10;99.90;;;;;;5037818;28;20018;-75
2022/11/16 05:56:39;;;;;;;8.00;2.42;;;11.00;99.90;;;;;;5048185;28;20027;-76
2022/11/16 05:59:05;;;;;;;4.55;2.05;;;11.00;99.90;;;;;;5069710;28;20529;-76
2022/11/16 06:01:30;;;;;;;5.85;2.17;;;10.90;99.90;;;;;;5038640;28;20178;-75
2022/11/16 06:03:59;;;;;;;3.28;1.65;;;10.90;99.90;;;;;;5028017;28;20028;-76
2022/11/16 06:06:25;;;;;;;7.65;2.38;;;10.90;99.90;;;;;;5028797;28;20630;-76
2022/11/16 06:08:50;;;;;;;7.72;1.90;;;10.80;99.90;;;;;;5028467;28;20071;-76
2022/11/16 06:11:16;;;;;;;7.07;2.13;;;10.80;99.90;;;;;;5030053;28;20033;-76
2022/11/16 06:13:41;;;;;;;5.72;1.98;;;10.70;99.90;;;;;;5030025;28;20687;-76
2022/11/16 06:16:07;;;;;;;5.68;1.77;;;10.70;99.90;;;;;;5028385;28;20029;-76
2022/11/16 06:18:39;;;;;;;4.00;1.88;;;10.60;99.90;;;;;;5045662;28;20130;-75
2022/11/16 06:21:06;;;;;;;5.93;1.60;;;10.50;99.90;;;;;;5030177;28;20032;-75
2022/11/16 06:23:32;;;;;;;8.35;1.60;;;10.50;99.90;;;;;;5028252;28;20056;-75
2022/11/16 06:25:58;;;;;;;6.90;1.98;;;10.40;99.90;;;;;;5032570;28;20056;-76
2022/11/16 06:28:24;;;;;;;4.43;1.50;;;10.40;99.90;;;;;;5027102;28;20155;-76
2022/11/16 06:30:50;;;;;;;4.40;1.17;;;10.20;99.90;;;;;;5031795;28;20053;-75
2022/11/16 06:33:16;;;;;;;5.57;1.17;;;10.20;99.90;;;;;;5029135;28;22452;-74
2022/11/16 06:35:42;;;;;;;5.40;1.23;;;10.00;99.90;;;;;;5047793;28;20036;-74
2022/11/16 06:38:07;;;;;;;6.68;1.00;;;10.00;99.90;;;;;;5051008;28;20020;-75
2022/11/16 06:40:33;;;;;;;9.00;1.42;;;9.90;99.90;;;;;;5041890;28;20397;-77
2022/11/16 06:42:59;;;;;;;7.88;1.35;;;9.80;99.90;;;;;;5037599;28;20084;-74
2022/11/16 06:45:25;;;;;;;9.27;1.55;;;9.80;99.90;;;;;;5033711;28;20032;-75
2022/11/16 06:47:51;;;;;;;10.45;1.25;;;9.70;99.90;;;;;;5027940;28;20452;-75
2022/11/16 06:50:20;;;;;;;7.93;1.17;;;9.60;99.90;;;;;;5030821;28;20037;-75
2022/11/16 06:52:46;;;;;;;3.90;1.00;;;9.50;99.90;;;;;;5026545;28;20060;-76
2022/11/16 06:55:12;;;;;;;6.35;1.45;;;9.50;99.90;;;;;;5027520;28;20507;-75
2022/11/16 06:57:39;;;;;;;5.43;1.20;;;9.40;99.90;;;;;;5031248;28;20033;-74
2022/11/16 07:00:05;;;;;;;8.27;1.23;;;9.40;99.90;;;;;;5027296;28;20474;-76
2022/11/16 07:02:31;;;;;;;8.40;1.27;;;9.30;99.90;;;;;;5032565;28;20074;-75
2022/11/16 07:04:57;;;;;;;6.45;1.48;;;9.30;99.90;;;;;;5034883;28;20029;-74
2022/11/16 07:07:22;;;;;;;9.45;1.63;;;9.20;99.90;;;;;;5031698;28;20033;-75
2022/11/16 07:09:48;;;;;;;8.70;2.03;;;9.10;99.90;;;;;;5026407;28;20099;-76
2022/11/16 07:12:13;;;;;;;9.10;1.73;;;9.10;99.90;;;;;;5027041;28;20051;-75
2022/11/16 07:14:40;;;;;;;8.07;2.17;;;9.00;99.90;;;;;;5028408;28;20036;-75
2022/11/16 07:17:06;;;;;;;8.20;2.17;;;9.00;99.90;;;;;;5035666;28;20029;-74
2022/11/16 07:19:31;;;;;;;7.43;2.30;;;8.90;99.90;;;;;;5026623;28;20108;-74
2022/11/16 07:21:58;;;;;;;5.70;2.03;;;8.90;99.90;;;;;;5033905;28;20033;-75
2022/11/16 07:24:25;;;;;;;7.70;2.67;;;8.80;99.90;;;;;;5029204;28;20039;-75
2022/11/16 07:26:52;;;;;;;7.90;3.38;;;8.80;99.90;;;;;;5031479;28;20056;-76
2022/11/16 07:29:18;;;;;;;6.60;2.70;;;8.80;99.90;;;;;;5034910;28;20048;-75
2022/11/16 07:31:43;;;;;;;7.03;4.13;;;8.80;99.90;;;;;;5039205;28;20065;-75
2022/11/16 07:34:09;;;;;;;9.43;3.55;;;8.80;99.90;;;;;;5029609;28;20714;-75
2022/11/16 07:36:35;;;;;;;10.40;4.82;;;8.80;99.90;;;;;;5037295;28;20033;-75
2022/11/16 07:39:01;;;;;;;7.55;3.75;;;8.80;99.90;;;;;;5031666;28;20035;-76
2022/11/16 07:41:26;;;;;;;10.98;3.58;;;8.90;99.90;;;;;;5043816;28;20043;-75
2022/11/16 07:43:52;;;;;;;11.05;4.13;;;8.90;99.90;;;;;;5056975;28;20024;-75
2022/11/16 07:46:23;;;;;;;10.25;4.10;;;8.90;99.90;;;;;;5043076;28;20030;-75
2022/11/16 07:48:48;;;;;;;7.40;4.30;;;8.90;99.90;;;;;;5042866;28;20025;-76
2022/11/16 07:51:16;;;;;;;10.60;4.75;;;9.00;99.90;;;;;;5049870;28;20020;-75
2022/11/16 07:53:42;;;;;;;8.02;4.25;;;9.00;99.90;;;;;;5052642;28;20021;-75
2022/11/16 07:56:09;;;;;;;8.43;4.10;;;9.00;99.90;;;;;;5042787;28;20112;-74
2022/11/16 07:58:36;;;;;;;10.75;5.00;;;9.00;99.90;;;;;;5061829;28;20477;-76
2022/11/16 08:01:05;;;;;;;11.85;4.80;;;9.10;99.90;;;;;;5049712;28;20041;-75
2022/11/16 08:03:31;;;;;;;10.80;4.65;;;9.10;99.90;;;;;;5049773;28;20036;-74
2022/11/16 08:06:10;;;;;;;8.55;4.07;;;9.20;99.90;;;;;;5049298;28;20033;-75
2022/11/16 08:08:36;;;;;;;10.55;4.80;;;9.20;99.90;;;;;;5050390;28;20032;-75
2022/11/16 08:11:04;;;;;;;11.23;4.97;;;9.30;99.90;;;;;;5064333;28;20029;-75
2022/11/16 08:13:33;;;;;;;15.20;5.28;;;9.30;99.90;;;;;;5054894;28;20024;-76
2022/11/16 08:16:03;;;;;;;10.98;5.18;;;9.40;99.90;;;;;;5051049;28;20052;-76
2022/11/16 08:18:31;;;;;;;11.18;5.18;;;9.40;99.90;;;;;;5048423;28;20486;-76
2022/11/16 08:21:00;;;;;;;13.45;4.35;;;9.50;99.90;;;;;;5034135;28;20045;-76
2022/11/16 08:23:27;;;;;;;11.57;4.78;;;9.60;99.90;;;;;;5042592;28;20391;-74
2022/11/16 08:25:58;;;;;;;13.00;5.15;;;9.60;99.90;;;;;;5045295;28;20494;-74
2022/11/16 08:28:24;;;;;;;17.60;5.03;;;9.60;99.90;;;;;;5040655;28;20033;-75
2022/11/16 08:30:51;;;;;;;17.33;5.40;;;9.60;99.90;;;;;;5050367;28;20075;-75
2022/11/16 08:33:18;;;;;;;11.52;5.22;;;9.70;99.90;;;;;;5039510;28;20013;-75
2022/11/16 08:35:44;;;;;;;8.77;4.50;;;9.70;99.90;;;;;;5057806;28;20437;-76
2022/11/16 08:38:10;;;;;;;17.63;5.57;;;9.80;99.90;;;;;;5051658;28;20033;-76
2022/11/16 08:40:36;;;;;;;14.70;5.03;;;9.90;99.90;;;;;;5054074;28;20025;-76
2022/11/16 08:43:02;;;;;;;15.10;5.07;;;9.90;99.90;;;;;;5054735;28;20037;-76
2022/11/16 08:45:28;;;;;;;14.43;4.93;;;9.90;99.90;;;;;;5048511;28;20036;-75
2022/11/16 08:47:54;;;;;;;15.75;5.15;;;10.00;99.90;;;;;;5053610;28;20029;-74
2022/11/16 08:50:20;;;;;;;12.23;4.07;;;10.00;99.90;;;;;;5051921;28;20033;-75
2022/11/16 08:52:49;;;;;;;11.60;4.50;;;10.10;99.90;;;;;;5050524;28;20078;-75
2022/11/16 08:55:16;;;;;;;14.38;4.05;;;10.20;99.90;;;;;;5062860;28;20028;-75
2022/11/16 08:57:41;;;;;;;14.63;4.63;;;10.20;99.90;;;;;;5060895;28;20059;-75
2022/11/16 09:00:08;;;;;;;9.40;3.67;;;10.20;99.90;;;;;;5043383;28;20057;-74
2022/11/16 09:02:33;;;;;;;13.48;3.85;;;10.30;99.90;;;;;;5056940;28;20059;-77
2022/11/16 09:04:59;;;;;;;12.93;3.05;;;10.40;99.90;;;;;;5044194;28;20076;-75
2022/11/16 09:07:25;;;;;;;16.60;3.25;;;10.40;99.90;;;;;;5051016;28;20394;-75
2022/11/16 09:09:51;;;;;;;12.57;2.90;;;10.40;99.90;;;;;;5057633;28;20483;-75
2022/11/16 09:12:16;;;;;;;12.50;3.30;;;10.50;99.90;;;;;;5054512;28;20025;-75
2022/11/16 09:14:42;;;;;;;11.20;3.10;;;10.50;99.90;;;;;;5051068;28;20029;-77
2022/11/16 09:17:09;;;;;;;11.75;3.10;;;10.50;99.90;;;;;;5058084;28;20078;-75
2022/11/16 09:19:35;;;;;;;14.05;2.75;;;10.60;99.90;;;;;;5055988;28;20064;-76
2022/11/16 09:22:01;;;;;;;12.90;2.00;;;10.60;99.90;;;;;;5053719;28;20071;-74
2022/11/16 09:24:27;;;;;;;12.27;1.83;;;10.60;99.90;;;;;;5052848;28;20029;-75
2022/11/16 09:26:55;;;;;;;11.10;2.38;;;10.70;99.90;;;;;;5046957;28;20032;-73
2022/11/16 09:29:26;;;;;;;9.75;2.05;;;10.70;99.90;;;;;;5045764;28;20032;-73
2022/11/16 09:31:52;;;;;;;10.30;1.42;;;10.80;99.90;;;;;;5043650;28;20045;-75
2022/11/16 09:34:18;;;;;;;9.48;1.90;;;10.80;99.90;;;;;;5053708;28;20033;-74
2022/11/16 09:36:43;;;;;;;12.45;2.63;;;10.90;99.90;;;;;;5055507;28;20111;-74
2022/11/16 09:39:11;;;;;;;9.05;1.63;;;10.90;99.90;;;;;;5049069;28;20030;-74
2022/11/16 09:42:02;;;;;;;7.85;1.20;;;10.90;99.90;;;;;;5060808;28;20466;-74
2022/11/16 09:44:41;;;;;;;13.75;1.38;;;10.90;99.90;;;;;;5048783;28;20033;-75
2022/11/16 09:47:20;;;;;;;10.18;1.20;;;11.00;99.90;;;;;;5048097;28;20379;-75
2022/11/16 09:49:54;;;;;;;9.10;1.00;;;11.00;99.90;;;;;;5037591;28;20495;-73
2022/11/16 09:52:40;;;;;;;5.38;1.10;;;11.00;99.90;;;;;;5054187;28;20513;-74
2022/11/16 09:55:31;;;;;;;9.65;1.00;;;11.00;99.90;;;;;;5049729;28;20079;-74
2022/11/16 09:58:00;;;;;;;7.85;0.93;;;11.10;99.90;;;;;;5062888;28;20474;-74
2022/11/16 10:00:27;;;;;;;8.52;1.02;;;11.10;99.90;;;;;;5044414;28;20041;-74
2022/11/16 10:03:13;;;;;;;9.00;0.95;;;11.10;99.90;;;;;;5046124;28;20047;-75
2022/11/16 10:05:50;;;;;;;6.63;1.48;;;11.10;99.90;;;;;;5051427;28;20041;-73
2022/11/16 10:08:24;;;;;;;9.30;0.90;;;11.20;99.90;;;;;;5064550;28;20021;-74
2022/11/16 10:11:03;;;;;;;10.32;1.00;;;11.20;99.90;;;;;;5052605;28;20498;-74
2022/11/16 10:13:37;;;;;;;9.43;0.93;;;11.20;99.90;;;;;;5050716;28;20083;-75
2022/11/16 10:16:18;;;;;;;11.18;0.90;;;11.30;99.90;;;;;;5042995;28;20037;-74
2022/11/16 10:18:50;;;;;;;7.13;0.70;;;11.30;99.90;;;;;;5043892;28;20108;-75
2022/11/16 10:21:44;;;;;;;7.03;0.80;;;11.30;99.90;;;;;;5058568;28;20502;-76
2022/11/16 10:24:30;;;;;;;6.05;1.05;;;11.30;99.90;;;;;;5048511;28;20056;-75
2022/11/16 10:27:23;;;;;;;9.75;0.98;;;11.30;99.90;;;;;;5045311;28;20108;-76
2022/11/16 10:30:06;;;;;;;6.88;1.00;;;11.30;99.90;;;;;;5046038;28;20021;-74
2022/11/16 10:32:36;;;;;;;9.40;1.23;;;11.30;99.90;;;;;;5050201;28;20633;-75
2022/11/16 10:35:08;;;;;;;9.38;1.15;;;11.30;99.90;;;;;;5050723;28;20033;-74
2022/11/16 10:37:37;;;;;;;11.30;1.15;;;11.40;99.90;;;;;;5055605;28;20025;-75
2022/11/16 10:40:36;;;;;;;6.47;0.85;;;11.40;99.90;;;;;;5040516;28;20422;-75
2022/11/16 10:43:12;;;;;;;7.05;1.00;;;11.40;99.90;;;;;;5042980;28;20045;-75
2022/11/16 10:46:16;;;;;;;8.40;0.95;;;11.50;99.90;;;;;;5047635;28;20033;-76
2022/11/16 10:49:03;;;;;;;7.95;1.05;;;11.50;99.90;;;;;;5047646;28;20437;-75
2022/11/16 10:51:29;;;;;;;9.63;0.93;;;11.60;99.90;;;;;;5043459;28;20151;-75
2022/11/16 10:53:55;;;;;;;6.70;1.00;;;11.60;99.90;;;;;;5051853;28;20027;-75
2022/11/16 10:56:26;;;;;;;8.15;0.77;;;11.60;99.90;;;;;;5044999;28;20033;-76
2022/11/16 10:58:58;;;;;;;3.72;0.60;;;11.70;99.90;;;;;;5038287;28;20390;-75
2022/11/16 11:01:39;;;;;;;4.15;0.85;;;11.70;99.90;;;;;;5043210;28;20128;-75
2022/11/16 11:04:23;;;;;;;6.68;0.80;;;11.70;99.90;;;;;;5052889;28;20017;-74
2022/11/16 11:07:00;;;;;;;6.85;0.90;;;11.70;99.90;;;;;;5038317;28;20143;-76
2022/11/16 11:09:31;;;;;;;4.43;0.60;;;11.70;99.90;;;;;;5044057;28;20032;-76
2022/11/16 11:15:10;;;;;;;5.28;0.73;;;11.70;99.90;;;;;;5041966;28;20059;-75
2022/11/16 11:17:42;;;;;;;5.47;0.95;;;11.70;99.90;;;;;;5040032;28;20090;-75
2022/11/16 11:20:14;;;;;;;8.68;1.02;;;11.80;99.90;;;;;;5038556;28;20057;-74
2022/11/16 11:22:49;;;;;;;8.02;1.02;;;11.80;99.90;;;;;;5056049;28;20051;-75
2022/11/16 11:25:37;;;;;;;10.80;0.90;;;11.80;99.90;;;;;;5054163;28;20071;-75
2022/11/16 11:28:33;;;;;;;6.30;1.25;;;11.90;99.90;;;;;;5031975;28;20026;-74
2022/11/16 11:31:24;;;;;;;13.13;1.38;;;11.90;99.90;;;;;;5034194;28;20048;-75
2022/11/16 11:34:12;;;;;;;7.28;1.27;;;11.90;99.90;;;;;;5035880;28;20033;-75
2022/11/16 11:36:46;;;;;;;11.48;1.30;;;11.90;99.90;;;;;;5037309;28;20032;-76
2022/11/16 11:39:17;;;;;;;9.52;1.85;;;12.00;99.90;;;;;;5045329;28;20036;-76
2022/11/16 11:41:44;;;;;;;10.40;1.60;;;11.90;99.90;;;;;;5044462;28;20033;-76
2022/11/16 11:44:18;;;;;;;13.45;2.22;;;12.00;99.90;;;;;;5037182;28;20037;-76
2022/11/16 11:47:27;;;;;;;13.57;2.10;;;11.90;99.90;;;;;;5040635;28;20032;-75
2022/11/16 11:50:20;;;;;;;7.70;1.48;;;11.80;99.90;;;;;;5030421;28;20088;-76
2022/11/16 11:52:52;;;;;;;;;;;11.90;99.90;;;;;;5054000;28;20056;-76
2022/11/16 11:55:18;;;;;;;11.15;1.60;;;11.90;99.90;;;;;;5046235;28;19905;-76
2022/11/16 11:57:48;;;;;;;7.38;1.20;;;11.90;99.90;;;;;;5046267;28;20103;-75
2022/11/16 12:00:14;;;;;;;10.30;1.63;;;12.10;99.90;;;;;;5069677;28;20531;-75
2022/11/16 12:02:55;;;;;;;8.43;1.27;;;12.30;99.90;;;;;;5047430;28;20022;-75
2022/11/16 12:05:43;;;;;;;9.18;1.73;;;12.40;99.90;;;;;;5033124;28;20368;-75
2022/11/16 12:08:50;;;;;;;8.02;1.10;;;12.40;99.90;;;;;;5049954;28;20425;-75
2022/11/16 12:11:27;;;;;;;5.57;0.88;;;12.30;99.90;;;;;;5036185;28;20022;-75
2022/11/16 12:14:16;;;;;;;6.35;0.95;;;12.30;99.90;;;;;;5049206;28;20482;-75
2022/11/16 12:17:08;;;;;;;10.73;0.93;;;12.30;99.90;;;;;;5059498;28;20074;-75
2022/11/16 12:19:58;;;;;;;7.68;0.73;;;12.40;99.90;;;;;;5037358;28;20039;-75
2022/11/16 12:23:05;;;;;;;9.70;1.02;;;12.50;99.90;;;;;;5054264;28;20036;-76
2022/11/16 12:26:01;;;;;;;4.38;0.60;;;12.60;99.90;;;;;;5047479;28;20124;-75
2022/11/16 12:28:54;;;;;;;7.18;0.70;;;12.60;99.90;;;;;;5051314;28;20029;-76
2022/11/16 12:31:35;;;;;;;6.90;0.52;;;12.60;99.90;;;;;;5049688;28;20514;-75
2022/11/16 12:34:28;;;;;;;5.20;0.50;;;12.40;99.90;;;;;;5046959;28;20044;-75
2022/11/16 12:37:09;;;;;;;7.28;1.08;;;12.30;99.90;;;;;;5044356;28;20512;-75
2022/11/16 12:39:59;;;;;;;5.47;0.60;;;12.30;99.90;;;;;;5034498;28;20801;-76
2022/11/16 12:42:55;;;;;;;6.57;0.63;;;12.30;99.90;;;;;;5044567;28;20410;-75
2022/11/16 12:45:52;;;;;;;10.30;0.70;;;12.30;99.90;;;;;;5064088;28;20509;-75
2022/11/16 12:48:53;;;;;;;7.20;0.70;;;12.30;99.90;;;;;;5035988;28;20074;-76
2022/11/16 12:51:54;;;;;;;9.77;0.88;;;12.30;99.90;;;;;;5031078;28;20033;-76
2022/11/16 12:54:53;;;;;;;5.00;0.55;;;12.20;99.90;;;;;;5042689;28;20028;-76
2022/11/16 12:57:34;;;;;;;6.80;0.47;;;12.10;99.90;;;;;;5030737;28;20096;-77
2022/11/16 13:00:05;;;;;;;4.90;0.40;;;12.10;99.90;;;;;;5033817;28;20028;-75
2022/11/16 13:02:58;;;;;;;7.53;0.63;;;12.20;99.90;;;;;;5049381;28;20036;-76
2022/11/16 13:05:45;;;;;;;8.82;0.57;;;12.30;99.90;;;;;;5054657;28;20029;-75
2022/11/16 13:08:30;;;;;;;8.52;0.40;;;12.40;99.90;;;;;;5031122;28;20033;-75
2022/11/16 13:11:14;;;;;;;5.97;0.50;;;12.40;99.90;;;;;;5044397;28;20059;-76
2022/11/16 13:13:42;;;;;;;3.58;0.40;;;12.50;99.90;;;;;;5055470;28;20360;-76
2022/11/16 13:16:09;;;;;;;4.68;0.85;;;12.60;99.90;;;;;;5029244;28;20026;-76
2022/11/16 13:18:40;;;;;;;6.57;0.52;;;12.60;99.90;;;;;;5031038;28;20029;-76
2022/11/16 13:21:20;;;;;;;4.20;0.32;;;12.60;99.90;;;;;;5057308;28;20052;-75
2022/11/16 13:24:04;;;;;;;5.22;0.63;;;12.50;99.90;;;;;;5051002;28;20033;-76
2022/11/16 13:26:42;;;;;;;3.50;0.60;;;12.40;99.90;;;;;;5053726;28;20060;-74
2022/11/16 13:29:42;;;;;;;8.00;0.52;;;12.40;99.90;;;;;;5049216;28;20033;-75
2022/11/16 13:32:24;;;;;;;6.15;0.80;;;12.40;99.90;;;;;;5044840;28;20049;-77
2022/11/16 13:34:50;;;;;;;6.05;0.55;;;12.50;99.90;;;;;;5060025;28;20450;-75
2022/11/16 13:37:42;;;;;;;5.63;0.50;;;12.50;99.90;;;;;;5052751;28;20119;-75
2022/11/16 13:40:18;;;;;;;5.05;0.52;;;12.50;99.90;;;;;;5040251;28;20044;-76
2022/11/16 13:42:57;;;;;;;5.15;0.50;;;12.50;99.90;;;;;;5053271;28;20115;-77
2022/11/16 13:45:24;;;;;;;6.32;0.50;;;12.50;99.90;;;;;;5047835;28;20099;-76
2022/11/16 13:47:55;;;;;;;5.22;0.40;;;12.50;99.90;;;;;;5044511;28;20037;-76